sensor_id;sensor_type;location;lat;lon;timestamp;temperature;humidity
4209;DHT22;36320;48.860;2.380;2023-08-24T00:00:50;28.80;57.10
4209;DHT22;36320;48.860;2.380;2023-08-24T00:03:16;28.80;57.10
4209;DHT22;36320;48.860;2.380;2023-08-24T00:05:41;28.70;57.10
4209;DHT22;36320;48.860;2.380;2023-08-24T00:08:08;28.80;57.20
4209;DHT22;36320;48.860;2.380;2023-08-24T00:10:37;28.70;57.20
4209;DHT22;36320;48.860;2.380;2023-08-24T00:13:03;28.70;57.30
4209;DHT22;36320;48.860;2.380;2023-08-24T00:15:29;28.60;57.40
4209;DHT22;36320;48.860;2.380;2023-08-24T00:17:56;28.60;57.50
4209;DHT22;36320;48.860;2.380;2023-08-24T00:20:22;28.60;57.60
4209;DHT22;36320;48.860;2.380;2023-08-24T00:22:48;28.50;57.60
4209;DHT22;36320;48.860;2.380;2023-08-24T00:25:14;28.60;57.60
4209;DHT22;36320;48.860;2.380;2023-08-24T00:27:41;28.50;57.60
4209;DHT22;36320;48.860;2.380;2023-08-24T00:30:08;28.50;57.80
4209;DHT22;36320;48.860;2.380;2023-08-24T00:32:35;28.50;57.80
4209;DHT22;36320;48.860;2.380;2023-08-24T00:35:02;28.40;57.80
4209;DHT22;36320;48.860;2.380;2023-08-24T00:37:28;28.50;57.90
4209;DHT22;36320;48.860;2.380;2023-08-24T00:39:54;28.40;57.90
4209;DHT22;36320;48.860;2.380;2023-08-24T00:42:20;28.40;58.00
4209;DHT22;36320;48.860;2.380;2023-08-24T00:44:48;28.40;58.00
4209;DHT22;36320;48.860;2.380;2023-08-24T00:47:14;28.40;58.00
4209;DHT22;36320;48.860;2.380;2023-08-24T00:49:41;28.50;58.00
4209;DHT22;36320;48.860;2.380;2023-08-24T00:52:07;28.50;58.00
4209;DHT22;36320;48.860;2.380;2023-08-24T00:54:35;28.40;58.00
4209;DHT22;36320;48.860;2.380;2023-08-24T00:57:03;28.40;58.30
4209;DHT22;36320;48.860;2.380;2023-08-24T00:59:29;28.40;58.20
4209;DHT22;36320;48.860;2.380;2023-08-24T01:01:57;28.40;58.20
4209;DHT22;36320;48.860;2.380;2023-08-24T01:04:24;28.30;58.20
4209;DHT22;36320;48.860;2.380;2023-08-24T01:06:50;28.30;58.20
4209;DHT22;36320;48.860;2.380;2023-08-24T01:09:19;28.30;58.20
4209;DHT22;36320;48.860;2.380;2023-08-24T01:17:07;28.20;58.40
4209;DHT22;36320;48.860;2.380;2023-08-24T01:19:43;28.20;59.10
4209;DHT22;36320;48.860;2.380;2023-08-24T01:25:00;28.20;58.60
4209;DHT22;36320;48.860;2.380;2023-08-24T01:27:31;28.10;59.40
4209;DHT22;36320;48.860;2.380;2023-08-24T01:29:58;28.10;58.80
4209;DHT22;36320;48.860;2.380;2023-08-24T01:32:25;28.20;58.70
4209;DHT22;36320;48.860;2.380;2023-08-24T01:34:51;28.10;58.50
4209;DHT22;36320;48.860;2.380;2023-08-24T01:37:17;28.20;58.50
4209;DHT22;36320;48.860;2.380;2023-08-24T01:39:48;28.20;58.40
4209;DHT22;36320;48.860;2.380;2023-08-24T01:42:20;28.20;58.50
4209;DHT22;36320;48.860;2.380;2023-08-24T01:44:49;28.10;58.30
4209;DHT22;36320;48.860;2.380;2023-08-24T01:47:17;28.00;58.40
4209;DHT22;36320;48.860;2.380;2023-08-24T01:49:43;28.10;58.50
4209;DHT22;36320;48.860;2.380;2023-08-24T01:52:09;28.10;58.40
4209;DHT22;36320;48.860;2.380;2023-08-24T01:54:35;28.10;59.10
4209;DHT22;36320;48.860;2.380;2023-08-24T01:57:04;28.10;58.50
4209;DHT22;36320;48.860;2.380;2023-08-24T01:59:29;28.10;58.50
4209;DHT22;36320;48.860;2.380;2023-08-24T02:01:55;28.10;58.50
4209;DHT22;36320;48.860;2.380;2023-08-24T02:04:20;28.10;58.50
4209;DHT22;36320;48.860;2.380;2023-08-24T02:06:48;28.10;58.40
4209;DHT22;36320;48.860;2.380;2023-08-24T02:09:15;28.10;58.60
4209;DHT22;36320;48.860;2.380;2023-08-24T02:11:41;28.00;58.50
4209;DHT22;36320;48.860;2.380;2023-08-24T02:14:07;28.10;58.70
4209;DHT22;36320;48.860;2.380;2023-08-24T02:16:33;28.00;58.70
4209;DHT22;36320;48.860;2.380;2023-08-24T02:18:58;28.00;58.90
4209;DHT22;36320;48.860;2.380;2023-08-24T02:21:24;28.00;59.00
4209;DHT22;36320;48.860;2.380;2023-08-24T02:23:49;28.00;59.10
4209;DHT22;36320;48.860;2.380;2023-08-24T02:26:15;28.00;59.20
4209;DHT22;36320;48.860;2.380;2023-08-24T02:28:41;27.80;59.40
4209;DHT22;36320;48.860;2.380;2023-08-24T02:31:07;27.80;59.60
4209;DHT22;36320;48.860;2.380;2023-08-24T02:33:33;27.80;59.70
4209;DHT22;36320;48.860;2.380;2023-08-24T02:35:58;27.80;59.90
4209;DHT22;36320;48.860;2.380;2023-08-24T02:38:26;27.70;60.00
4209;DHT22;36320;48.860;2.380;2023-08-24T02:41:02;27.70;60.40
4209;DHT22;36320;48.860;2.380;2023-08-24T02:43:28;27.60;60.90
4209;DHT22;36320;48.860;2.380;2023-08-24T02:45:54;27.50;61.50
4209;DHT22;36320;48.860;2.380;2023-08-24T02:48:23;27.50;61.60
4209;DHT22;36320;48.860;2.380;2023-08-24T02:50:48;27.50;61.80
4209;DHT22;36320;48.860;2.380;2023-08-24T02:53:14;27.40;62.20
4209;DHT22;36320;48.860;2.380;2023-08-24T02:55:39;27.40;62.40
4209;DHT22;36320;48.860;2.380;2023-08-24T02:58:05;27.40;62.40
4209;DHT22;36320;48.860;2.380;2023-08-24T03:00:32;27.50;62.10
4209;DHT22;36320;48.860;2.380;2023-08-24T03:02:58;27.50;62.10
4209;DHT22;36320;48.860;2.380;2023-08-24T03:05:24;27.60;62.00
4209;DHT22;36320;48.860;2.380;2023-08-24T03:07:49;27.50;61.90
4209;DHT22;36320;48.860;2.380;2023-08-24T03:10:18;27.50;62.00
4209;DHT22;36320;48.860;2.380;2023-08-24T03:12:43;27.50;62.10
4209;DHT22;36320;48.860;2.380;2023-08-24T03:15:09;27.50;62.10
4209;DHT22;36320;48.860;2.380;2023-08-24T03:17:35;27.50;62.20
4209;DHT22;36320;48.860;2.380;2023-08-24T03:20:01;27.50;62.20
4209;DHT22;36320;48.860;2.380;2023-08-24T03:22:26;27.40;62.20
4209;DHT22;36320;48.860;2.380;2023-08-24T03:24:52;27.40;62.20
4209;DHT22;36320;48.860;2.380;2023-08-24T03:27:22;27.40;62.10
4209;DHT22;36320;48.860;2.380;2023-08-24T03:29:47;27.40;62.20
4209;DHT22;36320;48.860;2.380;2023-08-24T03:32:13;27.40;62.10
4209;DHT22;36320;48.860;2.380;2023-08-24T03:34:39;27.40;62.80
4209;DHT22;36320;48.860;2.380;2023-08-24T03:37:06;27.40;62.10
4209;DHT22;36320;48.860;2.380;2023-08-24T03:39:32;27.40;62.10
4209;DHT22;36320;48.860;2.380;2023-08-24T03:41:58;27.40;62.00
4209;DHT22;36320;48.860;2.380;2023-08-24T03:44:24;27.40;61.90
4209;DHT22;36320;48.860;2.380;2023-08-24T03:46:51;27.40;61.90
4209;DHT22;36320;48.860;2.380;2023-08-24T03:49:17;27.40;61.80
4209;DHT22;36320;48.860;2.380;2023-08-24T03:51:42;27.30;61.70
4209;DHT22;36320;48.860;2.380;2023-08-24T03:54:08;27.20;61.80
4209;DHT22;36320;48.860;2.380;2023-08-24T03:56:34;27.20;62.00
4209;DHT22;36320;48.860;2.380;2023-08-24T03:59:00;27.20;62.00
4209;DHT22;36320;48.860;2.380;2023-08-24T04:01:25;27.10;62.00
4209;DHT22;36320;48.860;2.380;2023-08-24T04:03:51;27.10;62.10
4209;DHT22;36320;48.860;2.380;2023-08-24T04:06:18;27.10;62.20
4209;DHT22;36320;48.860;2.380;2023-08-24T04:08:46;27.10;62.20
4209;DHT22;36320;48.860;2.380;2023-08-24T04:11:12;27.20;62.30
4209;DHT22;36320;48.860;2.380;2023-08-24T04:13:37;27.20;62.10
4209;DHT22;36320;48.860;2.380;2023-08-24T04:16:04;27.20;62.30
4209;DHT22;36320;48.860;2.380;2023-08-24T04:18:30;27.10;62.40
4209;DHT22;36320;48.860;2.380;2023-08-24T04:20:57;27.00;62.60
4209;DHT22;36320;48.860;2.380;2023-08-24T04:23:26;27.00;62.80
4209;DHT22;36320;48.860;2.380;2023-08-24T04:25:57;27.00;62.90
4209;DHT22;36320;48.860;2.380;2023-08-24T04:28:26;27.00;63.10
4209;DHT22;36320;48.860;2.380;2023-08-24T04:30:56;26.90;63.00
4209;DHT22;36320;48.860;2.380;2023-08-24T04:33:22;26.90;63.10
4209;DHT22;36320;48.860;2.380;2023-08-24T04:35:49;27.00;63.10
4209;DHT22;36320;48.860;2.380;2023-08-24T04:38:17;26.90;63.20
4209;DHT22;36320;48.860;2.380;2023-08-24T04:40:48;26.90;63.20
4209;DHT22;36320;48.860;2.380;2023-08-24T04:43:13;26.90;63.40
4209;DHT22;36320;48.860;2.380;2023-08-24T04:45:39;26.90;63.40
4209;DHT22;36320;48.860;2.380;2023-08-24T04:48:08;26.90;63.40
4209;DHT22;36320;48.860;2.380;2023-08-24T04:50:33;26.90;63.40
4209;DHT22;36320;48.860;2.380;2023-08-24T04:52:59;26.90;63.40
4209;DHT22;36320;48.860;2.380;2023-08-24T04:55:25;26.90;63.40
4209;DHT22;36320;48.860;2.380;2023-08-24T04:57:50;26.80;63.40
4209;DHT22;36320;48.860;2.380;2023-08-24T05:00:16;26.70;63.50
4209;DHT22;36320;48.860;2.380;2023-08-24T05:02:42;26.70;63.60
4209;DHT22;36320;48.860;2.380;2023-08-24T05:05:08;26.70;64.40
4209;DHT22;36320;48.860;2.380;2023-08-24T05:07:40;26.60;63.60
4209;DHT22;36320;48.860;2.380;2023-08-24T05:10:07;26.70;63.60
4209;DHT22;36320;48.860;2.380;2023-08-24T05:12:34;26.70;63.50
4209;DHT22;36320;48.860;2.380;2023-08-24T05:15:05;26.70;64.30
4209;DHT22;36320;48.860;2.380;2023-08-24T05:17:31;26.60;63.50
4209;DHT22;36320;48.860;2.380;2023-08-24T05:19:58;26.70;63.40
4209;DHT22;36320;48.860;2.380;2023-08-24T05:22:24;26.70;63.30
4209;DHT22;36320;48.860;2.380;2023-08-24T05:24:49;26.70;63.20
4209;DHT22;36320;48.860;2.380;2023-08-24T05:27:15;26.70;63.20
4209;DHT22;36320;48.860;2.380;2023-08-24T05:29:41;26.80;63.10
4209;DHT22;36320;48.860;2.380;2023-08-24T05:32:07;26.90;62.80
4209;DHT22;36320;48.860;2.380;2023-08-24T05:34:33;26.90;63.40
4209;DHT22;36320;48.860;2.380;2023-08-24T05:36:59;26.90;62.50
4209;DHT22;36320;48.860;2.380;2023-08-24T05:39:25;27.00;62.40
4209;DHT22;36320;48.860;2.380;2023-08-24T05:41:52;27.20;62.20
4209;DHT22;36320;48.860;2.380;2023-08-24T05:44:21;27.30;61.80
4209;DHT22;36320;48.860;2.380;2023-08-24T05:46:46;27.40;61.60
4209;DHT22;36320;48.860;2.380;2023-08-24T05:49:12;27.50;61.30
4209;DHT22;36320;48.860;2.380;2023-08-24T05:51:38;27.50;61.20
4209;DHT22;36320;48.860;2.380;2023-08-24T05:54:04;27.50;61.20
4209;DHT22;36320;48.860;2.380;2023-08-24T05:56:30;27.40;61.00
4209;DHT22;36320;48.860;2.380;2023-08-24T05:58:58;27.50;60.90
4209;DHT22;36320;48.860;2.380;2023-08-24T06:01:25;27.50;60.70
4209;DHT22;36320;48.860;2.380;2023-08-24T06:03:51;27.60;60.70
4209;DHT22;36320;48.860;2.380;2023-08-24T06:06:18;27.50;60.30
4209;DHT22;36320;48.860;2.380;2023-08-24T06:08:43;27.50;60.30
4209;DHT22;36320;48.860;2.380;2023-08-24T06:11:11;27.60;60.20
4209;DHT22;36320;48.860;2.380;2023-08-24T06:13:36;27.60;60.10
4209;DHT22;36320;48.860;2.380;2023-08-24T06:16:02;27.60;59.90
4209;DHT22;36320;48.860;2.380;2023-08-24T06:18:29;27.70;60.00
4209;DHT22;36320;48.860;2.380;2023-08-24T06:20:55;27.70;59.80
4209;DHT22;36320;48.860;2.380;2023-08-24T06:23:20;27.60;59.70
4209;DHT22;36320;48.860;2.380;2023-08-24T06:25:47;27.70;59.70
4209;DHT22;36320;48.860;2.380;2023-08-24T06:28:13;27.70;59.60
4209;DHT22;36320;48.860;2.380;2023-08-24T06:30:40;27.70;59.50
4209;DHT22;36320;48.860;2.380;2023-08-24T06:33:06;27.70;59.40
4209;DHT22;36320;48.860;2.380;2023-08-24T06:35:33;27.80;60.00
4209;DHT22;36320;48.860;2.380;2023-08-24T06:37:59;27.80;59.20
4209;DHT22;36320;48.860;2.380;2023-08-24T06:40:25;27.80;59.10
4209;DHT22;36320;48.860;2.380;2023-08-24T06:42:50;27.80;59.00
4209;DHT22;36320;48.860;2.380;2023-08-24T06:45:17;27.90;59.00
4209;DHT22;36320;48.860;2.380;2023-08-24T06:47:44;28.00;58.80
4209;DHT22;36320;48.860;2.380;2023-08-24T06:50:12;28.00;58.70
4209;DHT22;36320;48.860;2.380;2023-08-24T06:52:38;28.10;58.60
4209;DHT22;36320;48.860;2.380;2023-08-24T06:55:07;28.20;58.50
4209;DHT22;36320;48.860;2.380;2023-08-24T06:57:33;28.10;58.40
4209;DHT22;36320;48.860;2.380;2023-08-24T06:59:59;28.20;58.30
4209;DHT22;36320;48.860;2.380;2023-08-24T07:02:25;28.30;58.10
4209;DHT22;36320;48.860;2.380;2023-08-24T07:04:51;28.40;58.10
4209;DHT22;36320;48.860;2.380;2023-08-24T07:07:20;28.50;57.80
4209;DHT22;36320;48.860;2.380;2023-08-24T07:09:46;28.50;57.80
4209;DHT22;36320;48.860;2.380;2023-08-24T07:12:12;28.50;57.70
4209;DHT22;36320;48.860;2.380;2023-08-24T07:14:39;28.60;57.70
4209;DHT22;36320;48.860;2.380;2023-08-24T07:17:06;28.70;57.90
4209;DHT22;36320;48.860;2.380;2023-08-24T07:19:32;28.90;57.90
4209;DHT22;36320;48.860;2.380;2023-08-24T07:21:59;29.00;57.70
4209;DHT22;36320;48.860;2.380;2023-08-24T07:24:25;29.30;57.60
4209;DHT22;36320;48.860;2.380;2023-08-24T07:26:53;29.40;57.10
4209;DHT22;36320;48.860;2.380;2023-08-24T07:29:20;29.50;56.70
4209;DHT22;36320;48.860;2.380;2023-08-24T07:31:47;29.50;57.30
4209;DHT22;36320;48.860;2.380;2023-08-24T07:34:14;29.50;56.60
4209;DHT22;36320;48.860;2.380;2023-08-24T07:36:40;29.50;56.60
4209;DHT22;36320;48.860;2.380;2023-08-24T07:39:06;29.40;56.60
4209;DHT22;36320;48.860;2.380;2023-08-24T07:41:35;29.20;56.60
4209;DHT22;36320;48.860;2.380;2023-08-24T07:44:00;29.00;56.90
4209;DHT22;36320;48.860;2.380;2023-08-24T07:46:26;29.00;57.10
4209;DHT22;36320;48.860;2.380;2023-08-24T07:48:52;28.90;57.10
4209;DHT22;36320;48.860;2.380;2023-08-24T07:51:18;29.00;57.10
4209;DHT22;36320;48.860;2.380;2023-08-24T07:53:44;29.10;57.70
4209;DHT22;36320;48.860;2.380;2023-08-24T07:56:09;29.20;56.70
4209;DHT22;36320;48.860;2.380;2023-08-24T07:58:36;29.40;56.60
4209;DHT22;36320;48.860;2.380;2023-08-24T08:01:01;29.50;56.20
4209;DHT22;36320;48.860;2.380;2023-08-24T08:03:27;29.50;55.90
4209;DHT22;36320;48.860;2.380;2023-08-24T08:05:52;29.30;55.80
4209;DHT22;36320;48.860;2.380;2023-08-24T08:08:18;29.10;56.10
4209;DHT22;36320;48.860;2.380;2023-08-24T08:10:44;29.10;56.10
4209;DHT22;36320;48.860;2.380;2023-08-24T08:13:10;29.20;56.10
4209;DHT22;36320;48.860;2.380;2023-08-24T08:15:36;29.20;55.90
4209;DHT22;36320;48.860;2.380;2023-08-24T08:18:05;29.40;55.90
4209;DHT22;36320;48.860;2.380;2023-08-24T08:20:36;29.60;55.70
4209;DHT22;36320;48.860;2.380;2023-08-24T08:23:02;29.90;55.30
4209;DHT22;36320;48.860;2.380;2023-08-24T08:25:27;30.10;54.90
4209;DHT22;36320;48.860;2.380;2023-08-24T08:27:53;30.10;54.60
4209;DHT22;36320;48.860;2.380;2023-08-24T08:30:19;30.10;54.40
4209;DHT22;36320;48.860;2.380;2023-08-24T08:32:46;30.30;54.50
4209;DHT22;36320;48.860;2.380;2023-08-24T08:35:12;30.70;54.00
4209;DHT22;36320;48.860;2.380;2023-08-24T08:37:38;31.00;53.50
4209;DHT22;36320;48.860;2.380;2023-08-24T08:40:04;31.00;53.10
4209;DHT22;36320;48.860;2.380;2023-08-24T08:42:35;30.70;52.90
4209;DHT22;36320;48.860;2.380;2023-08-24T08:45:04;30.70;53.40
4209;DHT22;36320;48.860;2.380;2023-08-24T08:47:32;30.80;53.20
4209;DHT22;36320;48.860;2.380;2023-08-24T08:49:58;31.00;52.80
4209;DHT22;36320;48.860;2.380;2023-08-24T08:52:25;30.70;52.60
4209;DHT22;36320;48.860;2.380;2023-08-24T08:54:51;30.90;52.80
4209;DHT22;36320;48.860;2.380;2023-08-24T08:57:21;31.10;52.60
4209;DHT22;36320;48.860;2.380;2023-08-24T08:59:48;31.20;52.50
4209;DHT22;36320;48.860;2.380;2023-08-24T09:02:21;31.40;52.10
4209;DHT22;36320;48.860;2.380;2023-08-24T09:04:49;31.60;51.90
4209;DHT22;36320;48.860;2.380;2023-08-24T09:07:16;31.80;51.70
4209;DHT22;36320;48.860;2.380;2023-08-24T09:09:43;31.80;52.00
4209;DHT22;36320;48.860;2.380;2023-08-24T09:12:10;31.50;52.70
4209;DHT22;36320;48.860;2.380;2023-08-24T09:14:38;31.50;52.80
4209;DHT22;36320;48.860;2.380;2023-08-24T09:17:05;31.90;53.50
4209;DHT22;36320;48.860;2.380;2023-08-24T09:19:33;31.20;53.30
4209;DHT22;36320;48.860;2.380;2023-08-24T09:22:04;31.00;53.60
4209;DHT22;36320;48.860;2.380;2023-08-24T09:24:31;31.00;54.00
4209;DHT22;36320;48.860;2.380;2023-08-24T09:26:57;30.90;54.00
4209;DHT22;36320;48.860;2.380;2023-08-24T09:29:23;30.70;54.30
4209;DHT22;36320;48.860;2.380;2023-08-24T09:31:50;30.70;55.00
4209;DHT22;36320;48.860;2.380;2023-08-24T09:34:24;30.80;54.60
4209;DHT22;36320;48.860;2.380;2023-08-24T09:36:53;30.90;54.30
4209;DHT22;36320;48.860;2.380;2023-08-24T09:39:19;31.00;54.20
4209;DHT22;36320;48.860;2.380;2023-08-24T09:41:48;31.10;54.70
4209;DHT22;36320;48.860;2.380;2023-08-24T09:44:14;30.90;53.90
4209;DHT22;36320;48.860;2.380;2023-08-24T09:46:40;30.90;54.20
4209;DHT22;36320;48.860;2.380;2023-08-24T09:49:09;31.00;54.10
4209;DHT22;36320;48.860;2.380;2023-08-24T09:51:36;31.00;53.90
4209;DHT22;36320;48.860;2.380;2023-08-24T09:54:07;30.90;53.80
4209;DHT22;36320;48.860;2.380;2023-08-24T09:56:42;30.80;53.80
4209;DHT22;36320;48.860;2.380;2023-08-24T09:59:11;30.80;53.80
4209;DHT22;36320;48.860;2.380;2023-08-24T10:01:42;30.60;54.60
4209;DHT22;36320;48.860;2.380;2023-08-24T10:04:09;30.50;54.00
4209;DHT22;36320;48.860;2.380;2023-08-24T10:06:40;30.30;54.10
4209;DHT22;36320;48.860;2.380;2023-08-24T10:09:14;30.20;54.40
4209;DHT22;36320;48.860;2.380;2023-08-24T10:11:55;30.10;54.60
4209;DHT22;36320;48.860;2.380;2023-08-24T10:16:48;30.30;54.70
4209;DHT22;36320;48.860;2.380;2023-08-24T10:19:15;30.40;54.40
4209;DHT22;36320;48.860;2.380;2023-08-24T10:21:42;30.30;54.40
4209;DHT22;36320;48.860;2.380;2023-08-24T10:24:09;30.50;54.60
4209;DHT22;36320;48.860;2.380;2023-08-24T10:26:37;30.50;54.40
4209;DHT22;36320;48.860;2.380;2023-08-24T10:29:06;30.50;54.40
4209;DHT22;36320;48.860;2.380;2023-08-24T10:31:33;30.60;54.40
4209;DHT22;36320;48.860;2.380;2023-08-24T10:33:59;30.70;54.20
4209;DHT22;36320;48.860;2.380;2023-08-24T10:36:27;30.60;54.20
4209;DHT22;36320;48.860;2.380;2023-08-24T10:38:55;30.40;54.30
4209;DHT22;36320;48.860;2.380;2023-08-24T10:41:27;30.50;54.60
4209;DHT22;36320;48.860;2.380;2023-08-24T10:44:04;30.70;54.20
4209;DHT22;36320;48.860;2.380;2023-08-24T10:46:35;30.90;53.90
4209;DHT22;36320;48.860;2.380;2023-08-24T10:49:04;30.80;53.60
4209;DHT22;36320;48.860;2.380;2023-08-24T10:51:30;30.80;53.60
4209;DHT22;36320;48.860;2.380;2023-08-24T10:53:59;30.60;53.70
4209;DHT22;36320;48.860;2.380;2023-08-24T10:56:52;30.50;53.80
4209;DHT22;36320;48.860;2.380;2023-08-24T10:59:22;30.40;53.90
4209;DHT22;36320;48.860;2.380;2023-08-24T11:01:55;30.30;54.10
4209;DHT22;36320;48.860;2.380;2023-08-24T11:04:21;30.00;54.60
4209;DHT22;36320;48.860;2.380;2023-08-24T11:06:59;30.00;54.70
4209;DHT22;36320;48.860;2.380;2023-08-24T11:09:45;30.00;54.70
4209;DHT22;36320;48.860;2.380;2023-08-24T11:12:14;30.00;54.60
4209;DHT22;36320;48.860;2.380;2023-08-24T11:14:52;30.00;54.70
4209;DHT22;36320;48.860;2.380;2023-08-24T11:17:24;29.90;54.50
4209;DHT22;36320;48.860;2.380;2023-08-24T11:19:54;29.60;54.80
4209;DHT22;36320;48.860;2.380;2023-08-24T11:22:20;29.60;54.90
4209;DHT22;36320;48.860;2.380;2023-08-24T11:24:47;29.60;55.10
4209;DHT22;36320;48.860;2.380;2023-08-24T11:27:13;29.60;55.20
4209;DHT22;36320;48.860;2.380;2023-08-24T11:29:39;29.60;55.50
4209;DHT22;36320;48.860;2.380;2023-08-24T11:32:08;29.50;55.80
4209;DHT22;36320;48.860;2.380;2023-08-24T11:34:36;29.80;56.70
4209;DHT22;36320;48.860;2.380;2023-08-24T11:37:03;29.00;57.40
4209;DHT22;36320;48.860;2.380;2023-08-24T11:39:30;28.80;58.10
4209;DHT22;36320;48.860;2.380;2023-08-24T11:44:27;28.80;58.70
4209;DHT22;36320;48.860;2.380;2023-08-24T11:46:53;28.90;58.60
4209;DHT22;36320;48.860;2.380;2023-08-24T11:49:21;28.90;58.70
4209;DHT22;36320;48.860;2.380;2023-08-24T11:51:50;28.90;58.80
4209;DHT22;36320;48.860;2.380;2023-08-24T11:54:18;28.70;59.00
4209;DHT22;36320;48.860;2.380;2023-08-24T11:56:44;28.50;59.30
4209;DHT22;36320;48.860;2.380;2023-08-24T11:59:16;28.30;59.40
4209;DHT22;36320;48.860;2.380;2023-08-24T12:01:42;28.50;59.50
4209;DHT22;36320;48.860;2.380;2023-08-24T12:04:10;28.80;59.10
4209;DHT22;36320;48.860;2.380;2023-08-24T12:06:36;28.90;58.90
4209;DHT22;36320;48.860;2.380;2023-08-24T12:09:05;29.10;58.80
4209;DHT22;36320;48.860;2.380;2023-08-24T12:11:37;29.40;59.00
4209;DHT22;36320;48.860;2.380;2023-08-24T12:14:05;29.50;59.00
4209;DHT22;36320;48.860;2.380;2023-08-24T12:16:35;29.50;58.90
4209;DHT22;36320;48.860;2.380;2023-08-24T12:19:00;29.60;58.90
4209;DHT22;36320;48.860;2.380;2023-08-24T12:21:31;29.70;59.10
4209;DHT22;36320;48.860;2.380;2023-08-24T12:24:04;29.80;59.30
4209;DHT22;36320;48.860;2.380;2023-08-24T12:26:35;29.70;59.20
4209;DHT22;36320;48.860;2.380;2023-08-24T12:29:10;29.80;59.40
4209;DHT22;36320;48.860;2.380;2023-08-24T12:31:36;29.70;59.50
4209;DHT22;36320;48.860;2.380;2023-08-24T12:34:06;29.60;59.80
4209;DHT22;36320;48.860;2.380;2023-08-24T12:36:37;29.50;60.00
4209;DHT22;36320;48.860;2.380;2023-08-24T12:39:07;29.40;60.10
4209;DHT22;36320;48.860;2.380;2023-08-24T12:41:38;29.40;60.40
4209;DHT22;36320;48.860;2.380;2023-08-24T12:44:04;29.20;60.60
4209;DHT22;36320;48.860;2.380;2023-08-24T12:46:39;29.10;60.90
4209;DHT22;36320;48.860;2.380;2023-08-24T12:49:05;29.10;61.40
4209;DHT22;36320;48.860;2.380;2023-08-24T12:51:30;29.00;61.60
4209;DHT22;36320;48.860;2.380;2023-08-24T12:53:56;28.80;61.90
4209;DHT22;36320;48.860;2.380;2023-08-24T12:56:22;28.50;62.20
4209;DHT22;36320;48.860;2.380;2023-08-24T12:58:47;28.30;62.90
4209;DHT22;36320;48.860;2.380;2023-08-24T13:01:14;28.20;63.40
4209;DHT22;36320;48.860;2.380;2023-08-24T13:03:40;28.10;63.90
4209;DHT22;36320;48.860;2.380;2023-08-24T13:06:06;27.90;64.20
4209;DHT22;36320;48.860;2.380;2023-08-24T13:08:32;27.80;64.60
4209;DHT22;36320;48.860;2.380;2023-08-24T13:10:58;27.70;65.10
4209;DHT22;36320;48.860;2.380;2023-08-24T13:13:23;27.60;65.20
4209;DHT22;36320;48.860;2.380;2023-08-24T13:15:50;27.40;65.60
4209;DHT22;36320;48.860;2.380;2023-08-24T13:18:17;27.40;66.10
4209;DHT22;36320;48.860;2.380;2023-08-24T13:20:43;27.40;66.40
4209;DHT22;36320;48.860;2.380;2023-08-24T13:23:09;27.50;66.80
4209;DHT22;36320;48.860;2.380;2023-08-24T13:25:35;27.60;67.00
4209;DHT22;36320;48.860;2.380;2023-08-24T13:28:02;27.50;67.20
4209;DHT22;36320;48.860;2.380;2023-08-24T13:30:27;27.50;67.40
4209;DHT22;36320;48.860;2.380;2023-08-24T13:32:54;27.50;67.20
4209;DHT22;36320;48.860;2.380;2023-08-24T13:35:20;27.70;67.30
4209;DHT22;36320;48.860;2.380;2023-08-24T13:37:46;27.70;67.10
4209;DHT22;36320;48.860;2.380;2023-08-24T13:40:14;27.80;66.90
4209;DHT22;36320;48.860;2.380;2023-08-24T13:42:39;28.10;66.60
4209;DHT22;36320;48.860;2.380;2023-08-24T13:45:05;28.40;66.20
4209;DHT22;36320;48.860;2.380;2023-08-24T13:47:34;28.70;65.50
4209;DHT22;36320;48.860;2.380;2023-08-24T13:49:59;28.90;65.00
4209;DHT22;36320;48.860;2.380;2023-08-24T13:52:25;29.00;64.60
4209;DHT22;36320;48.860;2.380;2023-08-24T13:54:52;29.30;64.20
4209;DHT22;36320;48.860;2.380;2023-08-24T13:57:17;29.50;63.80
4209;DHT22;36320;48.860;2.380;2023-08-24T13:59:43;29.70;63.40
4209;DHT22;36320;48.860;2.380;2023-08-24T14:02:09;29.90;63.10
4209;DHT22;36320;48.860;2.380;2023-08-24T14:04:35;30.00;62.70
4209;DHT22;36320;48.860;2.380;2023-08-24T14:07:00;30.10;62.40
4209;DHT22;36320;48.860;2.380;2023-08-24T14:09:27;30.20;62.20
4209;DHT22;36320;48.860;2.380;2023-08-24T14:11:52;30.40;61.80
4209;DHT22;36320;48.860;2.380;2023-08-24T14:14:18;30.40;61.70
4209;DHT22;36320;48.860;2.380;2023-08-24T14:16:44;30.40;61.60
4209;DHT22;36320;48.860;2.380;2023-08-24T14:19:09;30.40;61.60
4209;DHT22;36320;48.860;2.380;2023-08-24T14:21:37;30.40;61.50
4209;DHT22;36320;48.860;2.380;2023-08-24T14:24:03;30.40;61.40
4209;DHT22;36320;48.860;2.380;2023-08-24T14:26:29;30.50;61.40
4209;DHT22;36320;48.860;2.380;2023-08-24T14:28:56;30.60;61.10
4209;DHT22;36320;48.860;2.380;2023-08-24T14:31:24;30.70;60.80
4209;DHT22;36320;48.860;2.380;2023-08-24T14:33:51;30.70;60.80
4209;DHT22;36320;48.860;2.380;2023-08-24T14:36:18;30.70;60.80
4209;DHT22;36320;48.860;2.380;2023-08-24T14:38:46;30.60;60.80
4209;DHT22;36320;48.860;2.380;2023-08-24T14:41:13;30.60;60.90
4209;DHT22;36320;48.860;2.380;2023-08-24T14:43:39;30.50;60.90
4209;DHT22;36320;48.860;2.380;2023-08-24T14:46:05;30.50;61.10
4209;DHT22;36320;48.860;2.380;2023-08-24T14:48:31;30.60;61.20
4209;DHT22;36320;48.860;2.380;2023-08-24T14:50:58;30.60;61.20
4209;DHT22;36320;48.860;2.380;2023-08-24T14:53:24;30.60;61.90
4209;DHT22;36320;48.860;2.380;2023-08-24T14:55:50;30.60;61.10
4209;DHT22;36320;48.860;2.380;2023-08-24T14:58:17;30.50;61.20
4209;DHT22;36320;48.860;2.380;2023-08-24T15:00:43;30.40;61.10
4209;DHT22;36320;48.860;2.380;2023-08-24T15:03:11;30.50;61.30
4209;DHT22;36320;48.860;2.380;2023-08-24T15:05:43;30.60;61.00
4209;DHT22;36320;48.860;2.380;2023-08-24T15:08:10;30.70;60.90
4209;DHT22;36320;48.860;2.380;2023-08-24T15:10:37;30.70;60.70
4209;DHT22;36320;48.860;2.380;2023-08-24T15:13:05;31.00;60.50
4209;DHT22;36320;48.860;2.380;2023-08-24T15:15:34;31.20;60.00
4209;DHT22;36320;48.860;2.380;2023-08-24T15:18:02;31.20;59.80
4209;DHT22;36320;48.860;2.380;2023-08-24T15:20:28;31.10;59.60
4209;DHT22;36320;48.860;2.380;2023-08-24T15:22:54;31.00;59.40
4209;DHT22;36320;48.860;2.380;2023-08-24T15:25:20;31.00;59.40
4209;DHT22;36320;48.860;2.380;2023-08-24T15:27:47;31.20;59.00
4209;DHT22;36320;48.860;2.380;2023-08-24T15:30:13;31.50;58.70
4209;DHT22;36320;48.860;2.380;2023-08-24T15:32:40;31.60;58.10
4209;DHT22;36320;48.860;2.380;2023-08-24T15:35:06;31.60;58.30
4209;DHT22;36320;48.860;2.380;2023-08-24T15:37:32;31.60;59.00
4209;DHT22;36320;48.860;2.380;2023-08-24T15:39:58;32.80;58.40
4209;DHT22;36320;48.860;2.380;2023-08-24T15:42:25;34.10;56.40
4209;DHT22;36320;48.860;2.380;2023-08-24T15:44:51;35.20;54.30
4209;DHT22;36320;48.860;2.380;2023-08-24T15:47:18;36.90;51.50
4209;DHT22;36320;48.860;2.380;2023-08-24T15:49:44;38.60;48.50
4209;DHT22;36320;48.860;2.380;2023-08-24T15:52:11;40.40;45.30
4209;DHT22;36320;48.860;2.380;2023-08-24T15:54:36;42.80;42.60
4209;DHT22;36320;48.860;2.380;2023-08-24T15:57:02;45.20;39.00